sensor_id;sensor_type;location;lat;lon;timestamp;P1;durP1;ratioP1;P2;durP2;ratioP2
45356;SDS011;31092;51.924;21.448;2023-03-01T00:01:04;10.60;;;5.15;;
45356;SDS011;31092;51.924;21.448;2023-03-01T00:03:34;15.63;;;6.75;;
45356;SDS011;31092;51.924;21.448;2023-03-01T00:06:01;15.07;;;6.28;;
45356;SDS011;31092;51.924;21.448;2023-03-01T00:08:27;15.32;;;7.68;;
45356;SDS011;31092;51.924;21.448;2023-03-01T00:13:42;18.83;;;6.20;;
45356;SDS011;31092;51.924;21.448;2023-03-01T00:16:10;10.55;;;5.40;;
45356;SDS011;31092;51.924;21.448;2023-03-01T00:18:37;26.23;;;6.13;;
45356;SDS011;31092;51.924;21.448;2023-03-01T00:21:03;9.88;;;6.38;;
45356;SDS011;31092;51.924;21.448;2023-03-01T00:23:29;27.70;;;6.32;;
45356;SDS011;31092;51.924;21.448;2023-03-01T00:25:55;14.60;;;6.60;;
45356;SDS011;31092;51.924;21.448;2023-03-01T00:28:20;17.02;;;4.50;;
45356;SDS011;31092;51.924;21.448;2023-03-01T00:30:46;31.83;;;10.35;;
45356;SDS011;31092;51.924;21.448;2023-03-01T00:33:12;35.88;;;7.47;;
45356;SDS011;31092;51.924;21.448;2023-03-01T00:35:37;12.55;;;6.05;;
45356;SDS011;31092;51.924;21.448;2023-03-01T00:38:03;12.02;;;5.57;;
45356;SDS011;31092;51.924;21.448;2023-03-01T00:40:29;18.05;;;7.35;;
45356;SDS011;31092;51.924;21.448;2023-03-01T00:42:57;12.45;;;6.70;;
45356;SDS011;31092;51.924;21.448;2023-03-01T00:45:22;14.00;;;7.05;;
45356;SDS011;31092;51.924;21.448;2023-03-01T00:47:48;17.55;;;7.15;;
45356;SDS011;31092;51.924;21.448;2023-03-01T00:50:15;31.15;;;8.45;;
45356;SDS011;31092;51.924;21.448;2023-03-01T00:52:40;24.20;;;8.85;;
45356;SDS011;31092;51.924;21.448;2023-03-01T00:55:06;14.45;;;7.15;;
45356;SDS011;31092;51.924;21.448;2023-03-01T00:57:32;18.50;;;7.38;;
45356;SDS011;31092;51.924;21.448;2023-03-01T00:59:58;16.00;;;8.13;;
45356;SDS011;31092;51.924;21.448;2023-03-01T01:02:24;7.75;;;5.93;;
45356;SDS011;31092;51.924;21.448;2023-03-01T01:04:50;31.17;;;9.38;;
45356;SDS011;31092;51.924;21.448;2023-03-01T01:07:16;7.13;;;5.35;;
45356;SDS011;31092;51.924;21.448;2023-03-01T01:09:41;23.42;;;8.07;;
45356;SDS011;31092;51.924;21.448;2023-03-01T01:12:07;29.52;;;8.93;;
45356;SDS011;31092;51.924;21.448;2023-03-01T01:14:33;9.45;;;5.18;;
45356;SDS011;31092;51.924;21.448;2023-03-01T01:16:59;15.85;;;6.57;;
45356;SDS011;31092;51.924;21.448;2023-03-01T01:19:25;9.60;;;4.53;;
45356;SDS011;31092;51.924;21.448;2023-03-01T01:21:51;16.52;;;8.35;;
45356;SDS011;31092;51.924;21.448;2023-03-01T01:24:18;14.07;;;6.93;;
45356;SDS011;31092;51.924;21.448;2023-03-01T01:26:44;9.80;;;6.03;;
45356;SDS011;31092;51.924;21.448;2023-03-01T01:29:09;9.70;;;5.82;;
45356;SDS011;31092;51.924;21.448;2023-03-01T01:31:36;21.35;;;8.13;;
45356;SDS011;31092;51.924;21.448;2023-03-01T01:34:03;15.00;;;5.82;;
45356;SDS011;31092;51.924;21.448;2023-03-01T01:36:30;20.10;;;8.30;;
45356;SDS011;31092;51.924;21.448;2023-03-01T01:38:56;15.88;;;6.88;;
45356;SDS011;31092;51.924;21.448;2023-03-01T01:41:23;24.90;;;6.78;;
45356;SDS011;31092;51.924;21.448;2023-03-01T01:44:08;16.42;;;6.65;;
45356;SDS011;31092;51.924;21.448;2023-03-01T01:47:00;13.75;;;6.32;;
45356;SDS011;31092;51.924;21.448;2023-03-01T01:49:29;26.50;;;9.65;;
45356;SDS011;31092;51.924;21.448;2023-03-01T01:54:53;18.38;;;6.25;;
45356;SDS011;31092;51.924;21.448;2023-03-01T01:57:47;15.10;;;7.40;;
45356;SDS011;31092;51.924;21.448;2023-03-01T02:00:18;28.17;;;6.72;;
45356;SDS011;31092;51.924;21.448;2023-03-01T02:02:46;18.52;;;5.82;;
45356;SDS011;31092;51.924;21.448;2023-03-01T02:07:50;6.53;;;4.57;;
45356;SDS011;31092;51.924;21.448;2023-03-01T02:10:16;14.40;;;7.95;;
45356;SDS011;31092;51.924;21.448;2023-03-01T02:12:42;22.00;;;7.47;;
45356;SDS011;31092;51.924;21.448;2023-03-01T02:15:08;14.02;;;8.18;;
45356;SDS011;31092;51.924;21.448;2023-03-01T02:17:34;13.70;;;6.20;;
45356;SDS011;31092;51.924;21.448;2023-03-01T02:22:50;10.10;;;4.80;;
45356;SDS011;31092;51.924;21.448;2023-03-01T02:27:58;20.80;;;7.03;;
45356;SDS011;31092;51.924;21.448;2023-03-01T02:30:30;24.92;;;8.25;;
45356;SDS011;31092;51.924;21.448;2023-03-01T02:32:57;11.15;;;3.35;;
45356;SDS011;31092;51.924;21.448;2023-03-01T02:35:35;19.90;;;4.70;;
45356;SDS011;31092;51.924;21.448;2023-03-01T02:38:03;13.50;;;5.00;;
45356;SDS011;31092;51.924;21.448;2023-03-01T02:40:33;17.50;;;9.27;;
45356;SDS011;31092;51.924;21.448;2023-03-01T02:43:01;14.55;;;6.80;;
45356;SDS011;31092;51.924;21.448;2023-03-01T02:45:31;21.13;;;7.20;;
45356;SDS011;31092;51.924;21.448;2023-03-01T02:47:57;17.08;;;7.00;;
45356;SDS011;31092;51.924;21.448;2023-03-01T02:52:57;20.33;;;8.13;;
45356;SDS011;31092;51.924;21.448;2023-03-01T02:55:26;17.85;;;7.43;;
45356;SDS011;31092;51.924;21.448;2023-03-01T02:57:52;21.35;;;6.35;;
45356;SDS011;31092;51.924;21.448;2023-03-01T03:00:21;12.02;;;6.70;;
45356;SDS011;31092;51.924;21.448;2023-03-01T03:02:51;9.85;;;5.57;;
45356;SDS011;31092;51.924;21.448;2023-03-01T03:05:19;11.75;;;6.65;;
45356;SDS011;31092;51.924;21.448;2023-03-01T03:07:47;19.65;;;7.78;;
45356;SDS011;31092;51.924;21.448;2023-03-01T03:10:15;23.95;;;8.02;;
45356;SDS011;31092;51.924;21.448;2023-03-01T03:12:44;32.75;;;8.65;;
45356;SDS011;31092;51.924;21.448;2023-03-01T03:15:14;13.80;;;5.65;;
45356;SDS011;31092;51.924;21.448;2023-03-01T03:17:40;24.92;;;6.95;;
45356;SDS011;31092;51.924;21.448;2023-03-01T03:20:07;6.72;;;5.07;;
45356;SDS011;31092;51.924;21.448;2023-03-01T03:22:39;19.90;;;6.75;;
45356;SDS011;31092;51.924;21.448;2023-03-01T03:25:06;17.95;;;7.28;;
45356;SDS011;31092;51.924;21.448;2023-03-01T03:27:39;10.70;;;7.03;;
45356;SDS011;31092;51.924;21.448;2023-03-01T03:30:07;8.40;;;4.97;;
45356;SDS011;31092;51.924;21.448;2023-03-01T03:32:34;21.52;;;6.00;;
45356;SDS011;31092;51.924;21.448;2023-03-01T03:35:01;18.65;;;5.78;;
45356;SDS011;31092;51.924;21.448;2023-03-01T03:37:33;17.58;;;7.35;;
45356;SDS011;31092;51.924;21.448;2023-03-01T03:40:17;15.20;;;8.25;;
45356;SDS011;31092;51.924;21.448;2023-03-01T03:42:43;22.83;;;8.02;;
45356;SDS011;31092;51.924;21.448;2023-03-01T03:45:08;35.95;;;7.25;;
45356;SDS011;31092;51.924;21.448;2023-03-01T03:47:34;19.70;;;9.27;;
45356;SDS011;31092;51.924;21.448;2023-03-01T03:49:59;23.45;;;9.43;;
45356;SDS011;31092;51.924;21.448;2023-03-01T03:52:25;29.63;;;10.75;;
45356;SDS011;31092;51.924;21.448;2023-03-01T03:54:50;16.27;;;7.10;;
45356;SDS011;31092;51.924;21.448;2023-03-01T03:57:16;21.50;;;9.30;;
45356;SDS011;31092;51.924;21.448;2023-03-01T03:59:41;23.17;;;10.88;;
45356;SDS011;31092;51.924;21.448;2023-03-01T04:02:07;20.33;;;8.65;;
45356;SDS011;31092;51.924;21.448;2023-03-01T04:04:33;33.15;;;9.20;;
45356;SDS011;31092;51.924;21.448;2023-03-01T04:06:59;28.27;;;9.20;;
45356;SDS011;31092;51.924;21.448;2023-03-01T04:09:24;32.00;;;10.85;;
45356;SDS011;31092;51.924;21.448;2023-03-01T04:11:50;20.48;;;9.43;;
45356;SDS011;31092;51.924;21.448;2023-03-01T04:14:16;31.92;;;9.18;;
45356;SDS011;31092;51.924;21.448;2023-03-01T04:16:41;24.10;;;10.30;;
45356;SDS011;31092;51.924;21.448;2023-03-01T04:19:07;30.73;;;8.85;;
45356;SDS011;31092;51.924;21.448;2023-03-01T04:21:34;29.85;;;11.68;;
45356;SDS011;31092;51.924;21.448;2023-03-01T04:24:01;22.92;;;10.75;;
45356;SDS011;31092;51.924;21.448;2023-03-01T04:26:28;9.23;;;5.82;;
45356;SDS011;31092;51.924;21.448;2023-03-01T04:28:54;22.33;;;10.00;;
45356;SDS011;31092;51.924;21.448;2023-03-01T04:31:20;30.48;;;10.13;;
45356;SDS011;31092;51.924;21.448;2023-03-01T04:36:28;23.25;;;6.97;;
45356;SDS011;31092;51.924;21.448;2023-03-01T04:38:54;20.25;;;7.90;;
45356;SDS011;31092;51.924;21.448;2023-03-01T04:41:21;17.65;;;8.43;;
45356;SDS011;31092;51.924;21.448;2023-03-01T04:43:47;32.42;;;9.32;;
45356;SDS011;31092;51.924;21.448;2023-03-01T04:46:14;18.88;;;10.48;;
45356;SDS011;31092;51.924;21.448;2023-03-01T04:48:42;18.85;;;6.55;;
45356;SDS011;31092;51.924;21.448;2023-03-01T04:51:10;12.65;;;6.18;;
45356;SDS011;31092;51.924;21.448;2023-03-01T04:53:38;31.73;;;8.32;;
45356;SDS011;31092;51.924;21.448;2023-03-01T04:56:04;15.48;;;6.88;;
45356;SDS011;31092;51.924;21.448;2023-03-01T04:58:30;39.50;;;7.88;;
45356;SDS011;31092;51.924;21.448;2023-03-01T05:00:55;20.15;;;8.07;;
45356;SDS011;31092;51.924;21.448;2023-03-01T05:03:21;18.65;;;6.50;;
45356;SDS011;31092;51.924;21.448;2023-03-01T05:05:48;21.02;;;8.52;;
45356;SDS011;31092;51.924;21.448;2023-03-01T05:08:16;20.50;;;9.07;;
45356;SDS011;31092;51.924;21.448;2023-03-01T05:10:48;17.70;;;6.65;;
45356;SDS011;31092;51.924;21.448;2023-03-01T05:13:15;15.45;;;6.97;;
45356;SDS011;31092;51.924;21.448;2023-03-01T05:15:53;7.22;;;3.40;;
45356;SDS011;31092;51.924;21.448;2023-03-01T05:18:20;17.02;;;5.82;;
45356;SDS011;31092;51.924;21.448;2023-03-01T05:20:50;25.67;;;8.50;;
45356;SDS011;31092;51.924;21.448;2023-03-01T05:23:15;14.27;;;8.32;;
45356;SDS011;31092;51.924;21.448;2023-03-01T05:25:40;10.18;;;5.40;;
45356;SDS011;31092;51.924;21.448;2023-03-01T05:28:07;16.67;;;5.57;;
45356;SDS011;31092;51.924;21.448;2023-03-01T05:30:36;31.83;;;5.95;;
45356;SDS011;31092;51.924;21.448;2023-03-01T05:33:04;32.17;;;7.97;;
45356;SDS011;31092;51.924;21.448;2023-03-01T05:35:32;11.85;;;5.85;;
45356;SDS011;31092;51.924;21.448;2023-03-01T05:37:58;18.23;;;6.47;;
45356;SDS011;31092;51.924;21.448;2023-03-01T05:40:24;15.68;;;6.72;;
45356;SDS011;31092;51.924;21.448;2023-03-01T05:42:51;18.85;;;6.60;;
45356;SDS011;31092;51.924;21.448;2023-03-01T05:45:21;19.23;;;6.03;;
45356;SDS011;31092;51.924;21.448;2023-03-01T05:47:49;3.92;;;2.72;;
45356;SDS011;31092;51.924;21.448;2023-03-01T05:52:51;16.13;;;8.35;;
45356;SDS011;31092;51.924;21.448;2023-03-01T05:55:23;11.88;;;6.32;;
45356;SDS011;31092;51.924;21.448;2023-03-01T05:57:48;12.25;;;6.10;;
45356;SDS011;31092;51.924;21.448;2023-03-01T06:00:15;11.98;;;5.85;;
45356;SDS011;31092;51.924;21.448;2023-03-01T06:02:42;14.90;;;5.00;;
45356;SDS011;31092;51.924;21.448;2023-03-01T06:05:08;16.50;;;5.43;;
45356;SDS011;31092;51.924;21.448;2023-03-01T06:07:35;15.82;;;5.55;;
45356;SDS011;31092;51.924;21.448;2023-03-01T06:10:02;26.48;;;7.30;;
45356;SDS011;31092;51.924;21.448;2023-03-01T06:12:35;29.02;;;7.57;;
45356;SDS011;31092;51.924;21.448;2023-03-01T06:15:03;19.25;;;4.80;;
45356;SDS011;31092;51.924;21.448;2023-03-01T06:17:30;22.92;;;5.75;;
45356;SDS011;31092;51.924;21.448;2023-03-01T06:19:58;12.52;;;5.28;;
45356;SDS011;31092;51.924;21.448;2023-03-01T06:22:23;9.32;;;4.80;;
45356;SDS011;31092;51.924;21.448;2023-03-01T06:24:49;14.07;;;7.35;;
45356;SDS011;31092;51.924;21.448;2023-03-01T06:27:15;5.68;;;4.15;;
45356;SDS011;31092;51.924;21.448;2023-03-01T06:29:40;9.90;;;8.02;;
45356;SDS011;31092;51.924;21.448;2023-03-01T06:32:06;9.43;;;5.38;;
45356;SDS011;31092;51.924;21.448;2023-03-01T06:34:33;11.13;;;6.95;;
45356;SDS011;31092;51.924;21.448;2023-03-01T06:37:00;13.25;;;8.48;;
45356;SDS011;31092;51.924;21.448;2023-03-01T06:39:28;21.92;;;7.90;;
45356;SDS011;31092;51.924;21.448;2023-03-01T06:41:53;27.77;;;8.02;;
45356;SDS011;31092;51.924;21.448;2023-03-01T06:44:19;11.98;;;7.90;;
45356;SDS011;31092;51.924;21.448;2023-03-01T06:46:44;13.55;;;7.85;;
45356;SDS011;31092;51.924;21.448;2023-03-01T06:49:10;21.13;;;8.23;;
45356;SDS011;31092;51.924;21.448;2023-03-01T06:51:36;10.77;;;5.53;;
45356;SDS011;31092;51.924;21.448;2023-03-01T06:54:02;11.68;;;6.57;;
45356;SDS011;31092;51.924;21.448;2023-03-01T06:56:29;16.52;;;6.28;;
45356;SDS011;31092;51.924;21.448;2023-03-01T06:58:55;11.75;;;4.13;;
45356;SDS011;31092;51.924;21.448;2023-03-01T07:01:20;25.58;;;7.65;;
45356;SDS011;31092;51.924;21.448;2023-03-01T07:03:46;10.40;;;4.90;;
45356;SDS011;31092;51.924;21.448;2023-03-01T07:06:11;24.45;;;5.80;;
45356;SDS011;31092;51.924;21.448;2023-03-01T07:08:37;17.60;;;6.97;;
45356;SDS011;31092;51.924;21.448;2023-03-01T07:11:02;12.18;;;4.43;;
45356;SDS011;31092;51.924;21.448;2023-03-01T07:13:28;8.73;;;4.45;;
45356;SDS011;31092;51.924;21.448;2023-03-01T07:15:54;10.35;;;5.15;;
45356;SDS011;31092;51.924;21.448;2023-03-01T07:18:20;12.20;;;5.07;;
45356;SDS011;31092;51.924;21.448;2023-03-01T07:20:46;6.35;;;5.38;;
45356;SDS011;31092;51.924;21.448;2023-03-01T07:23:12;10.65;;;4.07;;
45356;SDS011;31092;51.924;21.448;2023-03-01T07:25:37;10.50;;;5.03;;
45356;SDS011;31092;51.924;21.448;2023-03-01T07:28:02;18.70;;;5.75;;
45356;SDS011;31092;51.924;21.448;2023-03-01T07:30:28;20.27;;;5.07;;
45356;SDS011;31092;51.924;21.448;2023-03-01T07:32:54;15.38;;;5.82;;
45356;SDS011;31092;51.924;21.448;2023-03-01T07:35:30;10.65;;;4.88;;
45356;SDS011;31092;51.924;21.448;2023-03-01T07:38:02;18.55;;;5.47;;
45356;SDS011;31092;51.924;21.448;2023-03-01T07:40:27;12.43;;;6.20;;
45356;SDS011;31092;51.924;21.448;2023-03-01T07:42:56;12.88;;;5.82;;
45356;SDS011;31092;51.924;21.448;2023-03-01T07:45:23;20.80;;;5.47;;
45356;SDS011;31092;51.924;21.448;2023-03-01T07:47:50;10.43;;;4.20;;
45356;SDS011;31092;51.924;21.448;2023-03-01T07:50:17;12.20;;;5.50;;
45356;SDS011;31092;51.924;21.448;2023-03-01T07:52:46;9.02;;;5.53;;
45356;SDS011;31092;51.924;21.448;2023-03-01T07:55:13;15.77;;;3.57;;
45356;SDS011;31092;51.924;21.448;2023-03-01T07:57:39;12.48;;;4.88;;
45356;SDS011;31092;51.924;21.448;2023-03-01T08:00:04;17.60;;;6.70;;
45356;SDS011;31092;51.924;21.448;2023-03-01T08:02:31;11.07;;;4.95;;
45356;SDS011;31092;51.924;21.448;2023-03-01T08:04:57;10.43;;;5.40;;
45356;SDS011;31092;51.924;21.448;2023-03-01T08:07:22;10.52;;;4.43;;
45356;SDS011;31092;51.924;21.448;2023-03-01T08:09:48;14.05;;;5.53;;
45356;SDS011;31092;51.924;21.448;2023-03-01T08:12:13;6.95;;;5.40;;
45356;SDS011;31092;51.924;21.448;2023-03-01T08:14:41;10.68;;;5.35;;
45356;SDS011;31092;51.924;21.448;2023-03-01T08:17:06;10.15;;;5.05;;
45356;SDS011;31092;51.924;21.448;2023-03-01T08:19:32;11.38;;;4.55;;
45356;SDS011;31092;51.924;21.448;2023-03-01T08:21:59;16.02;;;6.25;;
45356;SDS011;31092;51.924;21.448;2023-03-01T08:24:26;8.02;;;4.97;;
45356;SDS011;31092;51.924;21.448;2023-03-01T08:26:52;15.95;;;6.50;;
45356;SDS011;31092;51.924;21.448;2023-03-01T08:29:18;10.27;;;5.60;;
45356;SDS011;31092;51.924;21.448;2023-03-01T08:31:43;10.60;;;4.75;;
45356;SDS011;31092;51.924;21.448;2023-03-01T08:34:10;10.38;;;5.88;;
45356;SDS011;31092;51.924;21.448;2023-03-01T08:36:39;5.10;;;3.70;;
45356;SDS011;31092;51.924;21.448;2023-03-01T08:39:06;9.80;;;4.88;;
45356;SDS011;31092;51.924;21.448;2023-03-01T08:41:32;6.65;;;4.47;;
45356;SDS011;31092;51.924;21.448;2023-03-01T08:43:58;18.73;;;4.80;;
45356;SDS011;31092;51.924;21.448;2023-03-01T08:46:25;10.52;;;5.88;;
45356;SDS011;31092;51.924;21.448;2023-03-01T08:48:57;13.68;;;5.38;;
45356;SDS011;31092;51.924;21.448;2023-03-01T08:51:24;3.53;;;3.13;;
45356;SDS011;31092;51.924;21.448;2023-03-01T08:53:50;13.85;;;5.15;;
45356;SDS011;31092;51.924;21.448;2023-03-01T08:56:16;11.57;;;3.95;;
45356;SDS011;31092;51.924;21.448;2023-03-01T08:58:47;9.25;;;5.15;;
45356;SDS011;31092;51.924;21.448;2023-03-01T09:01:14;9.07;;;5.07;;
45356;SDS011;31092;51.924;21.448;2023-03-01T09:03:42;10.88;;;5.18;;
45356;SDS011;31092;51.924;21.448;2023-03-01T09:06:08;12.45;;;4.63;;
45356;SDS011;31092;51.924;21.448;2023-03-01T09:08:35;12.63;;;5.82;;
45356;SDS011;31092;51.924;21.448;2023-03-01T09:11:02;10.75;;;3.92;;
45356;SDS011;31092;51.924;21.448;2023-03-01T09:13:31;13.32;;;5.57;;
45356;SDS011;31092;51.924;21.448;2023-03-01T09:15:58;6.05;;;4.43;;
45356;SDS011;31092;51.924;21.448;2023-03-01T09:18:24;5.60;;;3.53;;
45356;SDS011;31092;51.924;21.448;2023-03-01T09:20:49;4.90;;;2.80;;
45356;SDS011;31092;51.924;21.448;2023-03-01T09:23:15;5.53;;;4.35;;
45356;SDS011;31092;51.924;21.448;2023-03-01T09:25:40;4.57;;;3.10;;
45356;SDS011;31092;51.924;21.448;2023-03-01T09:28:06;9.35;;;3.85;;
45356;SDS011;31092;51.924;21.448;2023-03-01T09:30:32;7.93;;;4.38;;
45356;SDS011;31092;51.924;21.448;2023-03-01T09:32:57;8.43;;;3.55;;
45356;SDS011;31092;51.924;21.448;2023-03-01T09:35:23;7.22;;;3.85;;
45356;SDS011;31092;51.924;21.448;2023-03-01T09:37:49;10.48;;;4.45;;
45356;SDS011;31092;51.924;21.448;2023-03-01T09:40:20;9.63;;;3.25;;
45356;SDS011;31092;51.924;21.448;2023-03-01T09:45:29;17.40;;;4.90;;
45356;SDS011;31092;51.924;21.448;2023-03-01T09:47:59;6.00;;;3.78;;
45356;SDS011;31092;51.924;21.448;2023-03-01T09:50:28;7.20;;;2.97;;
45356;SDS011;31092;51.924;21.448;2023-03-01T10:03:59;4.03;;;3.05;;
45356;SDS011;31092;51.924;21.448;2023-03-01T10:06:47;9.73;;;4.22;;
45356;SDS011;31092;51.924;21.448;2023-03-01T10:09:27;4.03;;;2.38;;
45356;SDS011;31092;51.924;21.448;2023-03-01T10:11:57;6.53;;;2.53;;
45356;SDS011;31092;51.924;21.448;2023-03-01T10:14:30;3.28;;;2.33;;
45356;SDS011;31092;51.924;21.448;2023-03-01T10:19:45;6.25;;;3.40;;
45356;SDS011;31092;51.924;21.448;2023-03-01T10:24:50;9.25;;;2.97;;
45356;SDS011;31092;51.924;21.448;2023-03-01T10:32:45;10.23;;;4.28;;
45356;SDS011;31092;51.924;21.448;2023-03-01T10:35:18;3.08;;;2.20;;
45356;SDS011;31092;51.924;21.448;2023-03-01T10:38:02;4.75;;;2.45;;
45356;SDS011;31092;51.924;21.448;2023-03-01T10:40:31;5.93;;;1.92;;
45356;SDS011;31092;51.924;21.448;2023-03-01T10:42:57;4.50;;;2.50;;
45356;SDS011;31092;51.924;21.448;2023-03-01T10:50:44;4.13;;;2.08;;
45356;SDS011;31092;51.924;21.448;2023-03-01T10:53:27;2.90;;;2.08;;
45356;SDS011;31092;51.924;21.448;2023-03-01T10:56:00;5.38;;;1.20;;
45356;SDS011;31092;51.924;21.448;2023-03-01T10:58:31;3.50;;;1.98;;
45356;SDS011;31092;51.924;21.448;2023-03-01T11:00:58;2.95;;;1.98;;
45356;SDS011;31092;51.924;21.448;2023-03-01T11:04:30;2.10;;;1.75;;
45356;SDS011;31092;51.924;21.448;2023-03-01T11:06:39;5.03;;;3.37;;
45356;SDS011;31092;51.924;21.448;2023-03-01T11:09:19;5.10;;;1.52;;
45356;SDS011;31092;51.924;21.448;2023-03-01T11:11:52;4.13;;;3.08;;
45356;SDS011;31092;51.924;21.448;2023-03-01T11:14:26;5.60;;;2.97;;
45356;SDS011;31092;51.924;21.448;2023-03-01T11:17:05;7.55;;;2.55;;
45356;SDS011;31092;51.924;21.448;2023-03-01T11:19:31;3.58;;;2.63;;
45356;SDS011;31092;51.924;21.448;2023-03-01T11:22:17;5.15;;;2.35;;
45356;SDS011;31092;51.924;21.448;2023-03-01T11:24:46;10.25;;;2.72;;
45356;SDS011;31092;51.924;21.448;2023-03-01T11:27:16;3.80;;;2.30;;
45356;SDS011;31092;51.924;21.448;2023-03-01T11:30:07;9.73;;;2.67;;
45356;SDS011;31092;51.924;21.448;2023-03-01T11:35:30;9.73;;;2.67;;
45356;SDS011;31092;51.924;21.448;2023-03-01T11:51:05;3.55;;;1.15;;
45356;SDS011;31092;51.924;21.448;2023-03-01T11:53:50;2.17;;;1.77;;
45356;SDS011;31092;51.924;21.448;2023-03-01T11:59:02;4.65;;;1.98;;
45356;SDS011;31092;51.924;21.448;2023-03-01T12:10:30;2.42;;;1.75;;
45356;SDS011;31092;51.924;21.448;2023-03-01T12:16:15;3.58;;;1.75;;
45356;SDS011;31092;51.924;21.448;2023-03-01T12:24:10;3.88;;;1.65;;
45356;SDS011;31092;51.924;21.448;2023-03-01T12:34:55;3.25;;;2.33;;
45356;SDS011;31092;51.924;21.448;2023-03-01T12:40:36;3.97;;;2.33;;
45356;SDS011;31092;51.924;21.448;2023-03-01T12:48:58;3.97;;;1.73;;
45356;SDS011;31092;51.924;21.448;2023-03-01T12:51:31;5.20;;;2.80;;
45356;SDS011;31092;51.924;21.448;2023-03-01T12:54:00;5.35;;;2.15;;
45356;SDS011;31092;51.924;21.448;2023-03-01T12:56:36;6.25;;;2.35;;
45356;SDS011;31092;51.924;21.448;2023-03-01T13:01:42;3.53;;;1.83;;
45356;SDS011;31092;51.924;21.448;2023-03-01T13:13:20;3.47;;;2.03;;
45356;SDS011;31092;51.924;21.448;2023-03-01T13:15:47;6.05;;;3.28;;
45356;SDS011;31092;51.924;21.448;2023-03-01T13:23:13;10.30;;;3.15;;
45356;SDS011;31092;51.924;21.448;2023-03-01T13:30:57;4.93;;;2.65;;
45356;SDS011;31092;51.924;21.448;2023-03-01T13:35:49;12.75;;;2.88;;
45356;SDS011;31092;51.924;21.448;2023-03-01T13:41:12;4.72;;;2.92;;
45356;SDS011;31092;51.924;21.448;2023-03-01T13:43:40;7.13;;;3.70;;
45356;SDS011;31092;51.924;21.448;2023-03-01T13:46:09;4.85;;;3.28;;
45356;SDS011;31092;51.924;21.448;2023-03-01T13:48:45;5.90;;;2.95;;
45356;SDS011;31092;51.924;21.448;2023-03-01T13:51:15;7.22;;;3.22;;
45356;SDS011;31092;51.924;21.448;2023-03-01T13:53:44;8.43;;;4.38;;
45356;SDS011;31092;51.924;21.448;2023-03-01T13:56:12;3.50;;;2.90;;
45356;SDS011;31092;51.924;21.448;2023-03-01T13:59:01;6.53;;;2.63;;
45356;SDS011;31092;51.924;21.448;2023-03-01T14:01:37;7.80;;;3.22;;
45356;SDS011;31092;51.924;21.448;2023-03-01T14:04:03;7.53;;;3.13;;
45356;SDS011;31092;51.924;21.448;2023-03-01T14:06:43;6.50;;;3.63;;
45356;SDS011;31092;51.924;21.448;2023-03-01T14:09:13;5.28;;;3.22;;
45356;SDS011;31092;51.924;21.448;2023-03-01T14:11:50;5.38;;;3.90;;
45356;SDS011;31092;51.924;21.448;2023-03-01T14:14:42;3.67;;;2.70;;
45356;SDS011;31092;51.924;21.448;2023-03-01T14:17:12;10.18;;;3.45;;
45356;SDS011;31092;51.924;21.448;2023-03-01T14:19:42;11.90;;;4.35;;
45356;SDS011;31092;51.924;21.448;2023-03-01T14:24:37;5.75;;;2.85;;
45356;SDS011;31092;51.924;21.448;2023-03-01T14:27:09;8.53;;;3.40;;
45356;SDS011;31092;51.924;21.448;2023-03-01T14:29:38;6.38;;;3.75;;
45356;SDS011;31092;51.924;21.448;2023-03-01T14:34:45;4.78;;;3.03;;
45356;SDS011;31092;51.924;21.448;2023-03-01T14:37:20;9.75;;;3.13;;
45356;SDS011;31092;51.924;21.448;2023-03-01T14:39:48;7.75;;;4.35;;
45356;SDS011;31092;51.924;21.448;2023-03-01T14:42:14;8.13;;;2.83;;
45356;SDS011;31092;51.924;21.448;2023-03-01T14:44:42;7.68;;;3.05;;
45356;SDS011;31092;51.924;21.448;2023-03-01T14:47:11;8.40;;;4.15;;
45356;SDS011;31092;51.924;21.448;2023-03-01T14:49:40;6.22;;;3.65;;
45356;SDS011;31092;51.924;21.448;2023-03-01T14:52:07;6.07;;;3.65;;
45356;SDS011;31092;51.924;21.448;2023-03-01T14:54:51;7.05;;;3.75;;
45356;SDS011;31092;51.924;21.448;2023-03-01T14:57:24;8.48;;;3.67;;
45356;SDS011;31092;51.924;21.448;2023-03-01T14:59:51;4.68;;;2.97;;
45356;SDS011;31092;51.924;21.448;2023-03-01T15:02:20;3.13;;;2.28;;
45356;SDS011;31092;51.924;21.448;2023-03-01T15:04:49;5.05;;;2.13;;
45356;SDS011;31092;51.924;21.448;2023-03-01T15:07:17;6.28;;;3.65;;
45356;SDS011;31092;51.924;21.448;2023-03-01T15:09:44;6.57;;;3.00;;
45356;SDS011;31092;51.924;21.448;2023-03-01T15:14:56;4.80;;;3.10;;
45356;SDS011;31092;51.924;21.448;2023-03-01T15:17:32;3.72;;;2.78;;
45356;SDS011;31092;51.924;21.448;2023-03-01T15:20:00;9.88;;;3.28;;
45356;SDS011;31092;51.924;21.448;2023-03-01T15:22:27;7.95;;;3.17;;
45356;SDS011;31092;51.924;21.448;2023-03-01T15:24:53;9.05;;;4.75;;
45356;SDS011;31092;51.924;21.448;2023-03-01T15:27:20;5.72;;;3.38;;
45356;SDS011;31092;51.924;21.448;2023-03-01T15:29:55;9.75;;;2.63;;
45356;SDS011;31092;51.924;21.448;2023-03-01T15:32:31;7.45;;;3.20;;
45356;SDS011;31092;51.924;21.448;2023-03-01T15:38:03;6.95;;;2.85;;
45356;SDS011;31092;51.924;21.448;2023-03-01T15:40:29;9.43;;;3.15;;
45356;SDS011;31092;51.924;21.448;2023-03-01T15:43:01;8.25;;;2.97;;
45356;SDS011;31092;51.924;21.448;2023-03-01T15:48:05;3.92;;;2.45;;
45356;SDS011;31092;51.924;21.448;2023-03-01T15:50:42;8.43;;;3.78;;
45356;SDS011;31092;51.924;21.448;2023-03-01T15:53:13;6.53;;;3.80;;
45356;SDS011;31092;51.924;21.448;2023-03-01T15:55:40;5.25;;;2.85;;
45356;SDS011;31092;51.924;21.448;2023-03-01T15:58:09;4.32;;;2.05;;
45356;SDS011;31092;51.924;21.448;2023-03-01T16:00:38;5.55;;;2.60;;
45356;SDS011;31092;51.924;21.448;2023-03-01T16:03:04;4.75;;;2.90;;
45356;SDS011;31092;51.924;21.448;2023-03-01T16:05:31;2.78;;;1.90;;
45356;SDS011;31092;51.924;21.448;2023-03-01T16:07:59;2.80;;;2.17;;
45356;SDS011;31092;51.924;21.448;2023-03-01T16:10:25;2.78;;;2.20;;
45356;SDS011;31092;51.924;21.448;2023-03-01T16:12:51;4.20;;;2.45;;
45356;SDS011;31092;51.924;21.448;2023-03-01T16:17:43;2.75;;;1.80;;
45356;SDS011;31092;51.924;21.448;2023-03-01T16:20:09;5.18;;;2.60;;
45356;SDS011;31092;51.924;21.448;2023-03-01T16:22:35;2.88;;;1.63;;
45356;SDS011;31092;51.924;21.448;2023-03-01T16:25:01;6.80;;;2.42;;
45356;SDS011;31092;51.924;21.448;2023-03-01T16:27:27;4.28;;;2.13;;
45356;SDS011;31092;51.924;21.448;2023-03-01T16:29:53;1.10;;;0.85;;
45356;SDS011;31092;51.924;21.448;2023-03-01T16:32:18;10.60;;;1.65;;
45356;SDS011;31092;51.924;21.448;2023-03-01T16:34:44;3.75;;;2.50;;
45356;SDS011;31092;51.924;21.448;2023-03-01T16:37:09;2.97;;;1.80;;
45356;SDS011;31092;51.924;21.448;2023-03-01T16:39:37;1.90;;;1.25;;
45356;SDS011;31092;51.924;21.448;2023-03-01T16:42:03;2.63;;;2.05;;
45356;SDS011;31092;51.924;21.448;2023-03-01T16:44:29;3.10;;;2.17;;
45356;SDS011;31092;51.924;21.448;2023-03-01T16:46:54;2.42;;;1.88;;
45356;SDS011;31092;51.924;21.448;2023-03-01T16:49:20;4.22;;;1.65;;
45356;SDS011;31092;51.924;21.448;2023-03-01T16:51:45;4.43;;;1.90;;
45356;SDS011;31092;51.924;21.448;2023-03-01T16:54:11;3.35;;;2.15;;
45356;SDS011;31092;51.924;21.448;2023-03-01T16:56:36;3.80;;;1.25;;
45356;SDS011;31092;51.924;21.448;2023-03-01T16:59:03;2.22;;;1.00;;
45356;SDS011;31092;51.924;21.448;2023-03-01T17:01:30;2.72;;;1.13;;